Time;durP1;ratioP1;P1;durP2;ratioP2;P2;SDS_P1;SDS_P2;PMS_P1;PMS_P2;Temp;Humidity;BMP_temperature;BMP_pressure;BME280_temperature;BME280_humidity;BME280_pressure;Samples;Min_cycle;Max_cycle;Signal;HPM_P1;HPM_P2
2022/08/29 00:00:04;;;;;;;11.20;3.00;;;14.50;99.90;;;;;;4995190;28;20247;-92
2022/08/29 00:02:30;;;;;;;5.65;2.88;;;14.40;99.90;;;;;;4994181;28;20190;-93
2022/08/29 00:04:55;;;;;;;8.80;3.30;;;14.40;99.90;;;;;;4996995;28;20187;-92
2022/08/29 00:07:21;;;;;;;8.05;2.88;;;14.40;99.90;;;;;;5006000;28;20709;-92
2022/08/29 00:09:47;;;;;;;6.15;2.70;;;14.40;99.90;;;;;;4988188;28;20290;-92
2022/08/29 00:12:13;;;;;;;10.98;3.28;;;14.40;99.90;;;;;;4994935;28;20194;-92
2022/08/29 00:14:38;;;;;;;7.60;2.60;;;14.30;99.90;;;;;;4997836;28;20187;-93
2022/08/29 00:17:04;;;;;;;7.95;3.22;;;14.30;99.90;;;;;;4985032;28;20192;-93
2022/08/29 00:19:29;;;;;;;8.98;2.95;;;14.30;99.90;;;;;;4990322;28;20191;-93
2022/08/29 00:21:55;;;;;;;7.07;3.00;;;14.20;99.90;;;;;;4988703;28;20302;-92
2022/08/29 00:24:21;;;;;;;8.73;3.38;;;14.20;99.90;;;;;;4993812;28;20194;-94
2022/08/29 00:26:47;;;;;;;14.48;3.05;;;14.10;99.90;;;;;;4997649;28;20202;-92
2022/08/29 00:29:14;;;;;;;7.32;2.80;;;14.10;99.90;;;;;;4990883;28;20187;-94
2022/08/29 00:31:40;;;;;;;11.18;3.22;;;14.20;99.90;;;;;;4998774;28;20191;-92
2022/08/29 00:34:06;;;;;;;9.18;2.95;;;14.20;99.90;;;;;;5423757;23;20228;-86
2022/08/29 00:36:32;;;;;;;8.63;3.22;;;14.20;99.90;;;;;;4974981;28;20177;-86
2022/08/29 00:38:58;;;;;;;6.70;2.92;;;14.10;99.90;;;;;;4973029;28;20192;-89
2022/08/29 00:41:24;;;;;;;8.73;2.97;;;14.20;99.90;;;;;;4956680;28;20264;-86
2022/08/29 00:43:50;;;;;;;7.78;3.03;;;14.20;99.90;;;;;;4964429;28;20192;-86
2022/08/29 00:46:34;;;;;;;6.32;3.10;;;14.20;99.90;;;;;;4953572;28;20196;-87
2022/08/29 00:49:04;;;;;;;9.63;3.38;;;14.20;99.90;;;;;;4961900;28;20283;-88
2022/08/29 00:51:31;;;;;;;8.65;3.15;;;14.20;99.90;;;;;;4970322;28;20196;-87
2022/08/29 00:54:03;;;;;;;11.25;3.67;;;14.20;99.90;;;;;;4960612;28;20188;-87
2022/08/29 00:56:30;;;;;;;9.65;3.20;;;14.20;99.90;;;;;;4961981;28;20181;-88
2022/08/29 00:59:09;;;;;;;7.13;2.95;;;14.10;99.90;;;;;;4972957;28;20216;-87
2022/08/29 01:01:35;;;;;;;7.82;2.92;;;14.10;99.90;;;;;;4953584;28;20217;-88
2022/08/29 01:04:01;;;;;;;8.27;3.22;;;14.10;99.90;;;;;;4958101;28;20197;-86
2022/08/29 01:06:28;;;;;;;9.25;3.20;;;14.10;99.90;;;;;;4953721;28;20196;-86
2022/08/29 01:08:55;;;;;;;9.93;3.20;;;14.00;99.90;;;;;;4956602;28;20215;-86
2022/08/29 01:14:06;;;;;;;8.52;2.92;;;13.90;99.90;;;;;;4963023;28;20700;-88
2022/08/29 01:16:32;;;;;;;7.03;2.67;;;13.90;99.90;;;;;;4967474;28;20188;-87
2022/08/29 01:19:04;;;;;;;8.85;3.45;;;13.90;99.90;;;;;;4962691;28;20244;-87
2022/08/29 01:21:40;;;;;;;4.70;2.58;;;14.00;99.90;;;;;;4962438;28;20267;-85
2022/08/29 01:24:25;;;;;;;6.63;2.88;;;14.00;99.90;;;;;;4961999;28;20188;-87
2022/08/29 01:26:52;;;;;;;7.95;2.65;;;14.00;99.90;;;;;;4953127;28;20254;-86
2022/08/29 01:29:18;;;;;;;6.43;2.80;;;14.00;99.90;;;;;;4965891;28;20203;-86
2022/08/29 01:31:46;;;;;;;7.68;2.92;;;14.00;99.90;;;;;;4965860;28;20187;-86
2022/08/29 01:34:14;;;;;;;8.95;2.90;;;14.00;99.90;;;;;;4965132;28;20231;-88
2022/08/29 01:36:53;;;;;;;7.30;3.17;;;14.10;99.90;;;;;;4965181;28;20243;-87
2022/08/29 01:39:21;;;;;;;5.85;2.78;;;14.10;99.90;;;;;;4962187;28;20547;-86
2022/08/29 01:41:48;;;;;;;9.52;2.70;;;14.10;99.90;;;;;;4953216;28;20189;-87
2022/08/29 01:44:18;;;;;;;9.55;3.55;;;14.10;99.90;;;;;;4961218;28;20244;-88
2022/08/29 01:46:49;;;;;;;9.50;2.92;;;14.10;99.90;;;;;;4952499;28;20664;-86
2022/08/29 01:49:16;;;;;;;7.43;3.17;;;14.10;99.90;;;;;;4959837;28;20185;-88
2022/08/29 01:51:42;;;;;;;7.00;3.08;;;14.10;99.90;;;;;;4969522;28;20173;-88
2022/08/29 01:54:10;;;;;;;6.43;3.00;;;14.10;99.90;;;;;;4963240;28;20573;-88
2022/08/29 01:56:40;;;;;;;8.30;2.80;;;14.10;99.90;;;;;;4952468;28;20708;-86
2022/08/29 01:59:10;;;;;;;6.65;3.38;;;14.10;99.90;;;;;;4961914;28;20185;-86
2022/08/29 02:01:40;;;;;;;6.63;2.70;;;14.10;99.90;;;;;;4953291;28;20212;-89
2022/08/29 02:04:07;;;;;;;6.97;2.80;;;14.20;99.90;;;;;;4956763;28;20248;-87
2022/08/29 02:06:35;;;;;;;5.75;2.58;;;14.20;99.90;;;;;;4961713;28;21016;-85
2022/08/29 02:09:02;;;;;;;8.85;3.10;;;14.20;99.90;;;;;;4959521;28;20212;-87
2022/08/29 02:11:27;;;;;;;5.70;2.95;;;14.20;99.90;;;;;;4961755;28;20205;-86
2022/08/29 02:13:57;;;;;;;5.80;2.80;;;14.20;99.90;;;;;;4957603;28;20441;-86
2022/08/29 02:16:24;;;;;;;6.80;2.78;;;14.10;99.90;;;;;;4954128;28;20162;-86
2022/08/29 02:18:53;;;;;;;4.60;2.65;;;14.10;99.90;;;;;;4957578;28;20468;-88
2022/08/29 02:21:21;;;;;;;8.45;2.80;;;14.10;99.90;;;;;;4952134;28;20555;-89
2022/08/29 02:23:49;;;;;;;6.72;3.25;;;14.00;99.90;;;;;;4963557;28;20192;-87
2022/08/29 02:26:16;;;;;;;10.93;2.97;;;14.00;99.90;;;;;;4971540;28;20203;-87
2022/08/29 02:28:42;;;;;;;9.52;3.33;;;14.00;99.90;;;;;;4963816;28;20679;-88
2022/08/29 02:31:08;;;;;;;9.00;3.10;;;14.00;99.90;;;;;;4955020;28;20241;-86
2022/08/29 02:33:36;;;;;;;9.50;2.80;;;14.00;99.90;;;;;;4954461;28;20185;-87
2022/08/29 02:36:03;;;;;;;6.18;2.83;;;14.00;99.90;;;;;;4963533;28;20239;-86
2022/08/29 02:38:29;;;;;;;6.32;3.00;;;14.00;99.90;;;;;;4960614;28;20226;-88
2022/08/29 02:40:56;;;;;;;9.15;3.00;;;14.00;99.90;;;;;;4959316;28;20212;-87
2022/08/29 02:43:23;;;;;;;9.05;3.50;;;14.00;99.90;;;;;;4974343;28;20192;-87
2022/08/29 02:45:49;;;;;;;9.93;3.22;;;14.00;99.90;;;;;;4962597;28;20192;-87
2022/08/29 02:48:16;;;;;;;5.70;2.90;;;14.00;99.90;;;;;;4962565;28;20240;-86
2022/08/29 02:50:47;;;;;;;8.02;2.85;;;14.00;99.90;;;;;;4969244;28;20212;-86
2022/08/29 02:53:16;;;;;;;7.35;2.90;;;14.00;99.90;;;;;;4982291;28;20191;-86
2022/08/29 02:55:42;;;;;;;8.55;2.55;;;14.00;99.90;;;;;;4958928;28;20685;-86
2022/08/29 02:58:08;;;;;;;8.85;3.05;;;14.00;99.90;;;;;;4959620;28;20211;-87
2022/08/29 03:00:35;;;;;;;7.90;3.25;;;14.00;99.90;;;;;;4982191;28;20235;-88
2022/08/29 03:03:01;;;;;;;8.13;3.22;;;14.10;99.90;;;;;;4959492;28;20469;-86
2022/08/29 03:05:29;;;;;;;4.88;2.60;;;14.10;99.90;;;;;;4961431;28;20292;-87
2022/08/29 03:07:56;;;;;;;6.47;2.67;;;14.10;99.90;;;;;;4967000;28;20204;-88
2022/08/29 03:10:25;;;;;;;6.38;2.22;;;14.10;99.90;;;;;;4960712;28;20331;-86
2022/08/29 03:12:51;;;;;;;5.45;3.05;;;14.10;99.90;;;;;;4970808;28;20196;-86
2022/08/29 03:15:17;;;;;;;7.80;2.67;;;14.10;99.90;;;;;;4964113;28;20195;-86
2022/08/29 03:17:44;;;;;;;7.13;2.90;;;14.10;99.90;;;;;;4960181;28;20199;-88
2022/08/29 03:20:11;;;;;;;9.55;2.95;;;14.10;99.90;;;;;;4959125;28;20212;-87
2022/08/29 03:22:37;;;;;;;9.65;2.97;;;14.10;99.90;;;;;;4958260;28;20196;-89
2022/08/29 03:25:04;;;;;;;12.65;3.28;;;14.10;99.90;;;;;;4971435;28;20199;-88
2022/08/29 03:27:31;;;;;;;6.65;2.55;;;14.10;99.90;;;;;;4964518;28;20244;-88
2022/08/29 03:29:57;;;;;;;5.57;2.35;;;14.10;99.90;;;;;;4958032;28;20731;-87
2022/08/29 03:32:24;;;;;;;5.00;2.60;;;14.20;99.90;;;;;;4958572;28;20295;-88
2022/08/29 03:34:50;;;;;;;6.68;2.83;;;14.20;99.90;;;;;;4954440;29;20271;-87
2022/08/29 03:37:16;;;;;;;7.40;2.83;;;14.20;99.90;;;;;;4955276;28;20193;-86
2022/08/29 03:39:42;;;;;;;11.23;3.50;;;14.20;99.90;;;;;;4964226;28;20213;-87
2022/08/29 03:42:08;;;;;;;11.90;3.10;;;14.20;99.90;;;;;;4959871;28;20200;-89
2022/08/29 03:44:36;;;;;;;7.10;2.50;;;14.20;99.90;;;;;;4954379;28;20217;-86
2022/08/29 03:47:02;;;;;;;8.55;3.10;;;14.20;99.90;;;;;;4955886;28;20216;-88
2022/08/29 03:49:28;;;;;;;7.90;3.03;;;14.20;99.90;;;;;;4964395;28;20196;-87
2022/08/29 03:51:54;;;;;;;6.65;2.90;;;14.20;99.90;;;;;;4962601;28;20181;-87
2022/08/29 03:54:21;;;;;;;5.15;2.42;;;14.20;99.90;;;;;;4960760;28;20192;-86
2022/08/29 03:56:47;;;;;;;9.48;3.10;;;14.20;99.90;;;;;;4955488;28;20174;-88
2022/08/29 03:59:13;;;;;;;6.28;2.47;;;14.20;99.90;;;;;;4970817;28;20263;-88
2022/08/29 04:01:39;;;;;;;8.40;3.28;;;14.30;99.90;;;;;;4955379;28;20227;-87
2022/08/29 04:04:05;;;;;;;10.55;3.20;;;14.20;99.90;;;;;;4961459;28;20596;-87
2022/08/29 04:06:32;;;;;;;9.25;2.83;;;14.20;99.90;;;;;;4973448;28;20215;-85
2022/08/29 04:08:59;;;;;;;12.85;2.40;;;14.20;99.90;;;;;;4964592;28;20258;-86
2022/08/29 04:11:27;;;;;;;7.38;2.70;;;14.20;99.90;;;;;;4954273;28;20617;-85
2022/08/29 04:13:53;;;;;;;8.63;3.08;;;14.10;99.90;;;;;;4961112;28;20534;-87
2022/08/29 04:16:29;;;;;;;6.55;2.80;;;14.10;99.90;;;;;;4969549;28;20185;-86
2022/08/29 04:18:56;;;;;;;5.30;2.70;;;14.10;99.90;;;;;;4962190;28;20208;-87
2022/08/29 04:21:21;;;;;;;7.15;2.63;;;14.10;99.90;;;;;;4964346;28;20212;-87
2022/08/29 04:23:48;;;;;;;9.68;2.92;;;14.10;99.90;;;;;;4955483;28;20191;-87
2022/08/29 04:26:17;;;;;;;9.05;2.58;;;14.10;99.90;;;;;;4954065;28;20555;-87
2022/08/29 04:28:43;;;;;;;6.60;2.80;;;14.10;99.90;;;;;;4963677;28;20201;-87
2022/08/29 04:31:19;;;;;;;6.47;2.88;;;14.10;99.90;;;;;;4954117;28;20197;-87
2022/08/29 04:33:49;;;;;;;10.75;2.75;;;14.10;99.90;;;;;;4955664;28;20624;-87
2022/08/29 04:36:15;;;;;;;7.97;2.60;;;14.20;99.90;;;;;;4957144;28;20191;-88
2022/08/29 04:38:41;;;;;;;6.93;2.70;;;14.20;99.90;;;;;;4961171;28;20184;-88
2022/08/29 04:41:13;;;;;;;6.60;2.92;;;14.20;99.90;;;;;;4961800;28;20219;-87
2022/08/29 04:43:44;;;;;;;9.23;2.60;;;14.20;99.90;;;;;;4966764;28;20188;-86
2022/08/29 04:46:13;;;;;;;7.57;2.90;;;14.30;99.90;;;;;;4971082;28;20241;-87
2022/08/29 04:48:39;;;;;;;8.50;2.78;;;14.30;99.90;;;;;;4956678;28;20215;-87
2022/08/29 04:51:05;;;;;;;7.40;2.80;;;14.30;99.90;;;;;;4973592;28;20200;-87
2022/08/29 04:53:31;;;;;;;8.02;4.18;;;14.40;99.90;;;;;;4956381;28;20196;-85
2022/08/29 04:56:05;;;;;;;8.27;2.63;;;14.40;99.90;;;;;;4957126;28;20191;-88
2022/08/29 04:58:36;;;;;;;6.65;2.35;;;14.40;99.90;;;;;;4963478;28;20703;-88
2022/08/29 05:01:04;;;;;;;9.50;2.60;;;14.40;99.90;;;;;;4957164;28;20714;-87
2022/08/29 05:03:31;;;;;;;10.93;3.40;;;14.40;99.90;;;;;;4980559;28;20551;-86
2022/08/29 05:06:06;;;;;;;10.45;2.83;;;14.50;99.90;;;;;;4958322;28;20196;-88
2022/08/29 05:08:34;;;;;;;8.05;3.03;;;14.50;99.90;;;;;;4962503;28;20250;-89
2022/08/29 05:11:01;;;;;;;7.88;2.63;;;14.50;99.90;;;;;;4961015;28;20200;-86
2022/08/29 05:13:27;;;;;;;7.93;2.85;;;14.60;99.90;;;;;;4969981;28;20242;-87
2022/08/29 05:15:53;;;;;;;7.25;2.33;;;14.60;99.90;;;;;;4955816;28;20578;-87
2022/08/29 05:18:19;;;;;;;5.93;2.42;;;14.70;99.90;;;;;;4965899;28;20275;-86
2022/08/29 05:20:47;;;;;;;8.48;3.00;;;14.70;99.90;;;;;;4986706;28;20209;-87
2022/08/29 05:23:15;;;;;;;8.45;2.63;;;14.70;99.90;;;;;;4964493;28;20220;-87
2022/08/29 05:25:42;;;;;;;8.20;2.50;;;14.80;99.90;;;;;;4969380;28;20707;-87
2022/08/29 05:28:12;;;;;;;7.05;2.50;;;14.80;99.90;;;;;;4970587;28;20290;-86
2022/08/29 05:30:39;;;;;;;8.40;3.67;;;14.80;99.90;;;;;;4962708;28;20196;-88
2022/08/29 05:33:08;;;;;;;9.18;2.70;;;14.90;99.90;;;;;;4965265;28;20179;-88
2022/08/29 05:35:34;;;;;;;9.48;2.42;;;15.00;99.90;;;;;;4958853;28;20320;-87
2022/08/29 05:38:03;;;;;;;6.57;2.88;;;15.00;99.90;;;;;;4961426;28;20207;-88
2022/08/29 05:40:29;;;;;;;6.38;2.50;;;15.00;99.90;;;;;;4966700;28;20276;-87
2022/08/29 05:42:55;;;;;;;6.43;2.78;;;15.00;99.90;;;;;;4952914;29;20630;-88
2022/08/29 05:45:21;;;;;;;5.47;2.63;;;15.00;99.90;;;;;;4952646;28;20189;-88
2022/08/29 05:47:47;;;;;;;7.65;2.72;;;14.90;99.90;;;;;;4952267;29;20692;-87
2022/08/29 05:50:15;;;;;;;4.65;2.25;;;14.90;99.90;;;;;;4952660;28;20211;-87
2022/08/29 05:52:42;;;;;;;7.25;2.55;;;14.90;99.90;;;;;;4947579;29;20200;-87
2022/08/29 05:55:08;;;;;;;8.00;2.65;;;14.90;99.90;;;;;;4951682;28;20193;-87
2022/08/29 05:57:35;;;;;;;4.00;2.25;;;14.90;99.90;;;;;;4952331;28;20172;-87
2022/08/29 06:00:03;;;;;;;8.10;2.67;;;15.00;99.90;;;;;;4946276;29;20583;-88
2022/08/29 06:02:29;;;;;;;7.28;2.63;;;15.00;99.90;;;;;;4952373;28;20201;-87
2022/08/29 06:04:55;;;;;;;8.43;2.72;;;15.10;99.90;;;;;;4949419;28;20177;-88
2022/08/29 06:07:22;;;;;;;9.82;2.88;;;15.20;99.90;;;;;;4951343;29;20200;-85
2022/08/29 06:09:51;;;;;;;7.18;2.60;;;15.20;99.90;;;;;;4951864;29;20252;-89
2022/08/29 06:12:18;;;;;;;5.63;2.35;;;15.30;99.90;;;;;;4952298;29;20192;-88
2022/08/29 06:14:44;;;;;;;9.98;2.90;;;15.40;99.90;;;;;;4952300;29;20170;-86
2022/08/29 06:17:10;;;;;;;5.80;2.30;;;15.50;99.90;;;;;;4952455;28;20173;-85
2022/08/29 06:19:38;;;;;;;15.30;3.08;;;15.60;99.90;;;;;;4953558;28;20193;-86
2022/08/29 06:22:06;;;;;;;7.15;2.60;;;15.70;99.90;;;;;;4949511;28;20267;-87
2022/08/29 06:24:33;;;;;;;9.55;2.90;;;15.80;99.90;;;;;;4948559;28;20176;-88
2022/08/29 06:27:00;;;;;;;8.40;3.35;;;15.80;99.90;;;;;;4938804;28;20185;-86
2022/08/29 06:29:27;;;;;;;11.65;3.13;;;15.80;99.90;;;;;;4966896;28;20283;-89
2022/08/29 06:31:55;;;;;;;10.20;3.30;;;15.80;99.90;;;;;;4963360;28;20181;-86
2022/08/29 06:34:22;;;;;;;9.50;2.92;;;15.90;99.90;;;;;;4963246;28;20233;-86
2022/08/29 06:36:50;;;;;;;9.48;3.50;;;15.90;99.90;;;;;;4963119;28;20185;-88
2022/08/29 06:39:16;;;;;;;8.73;3.15;;;16.00;99.90;;;;;;4967781;28;20542;-89
2022/08/29 06:41:42;;;;;;;8.55;3.30;;;16.00;99.90;;;;;;4965189;28;20192;-88
2022/08/29 06:44:09;;;;;;;10.45;3.55;;;16.00;99.90;;;;;;4961633;28;20199;-87
2022/08/29 06:46:38;;;;;;;11.98;3.55;;;16.20;99.90;;;;;;4960157;28;20232;-88
2022/08/29 06:49:07;;;;;;;8.80;3.63;;;16.20;99.90;;;;;;4968026;28;20205;-86
2022/08/29 06:51:36;;;;;;;7.50;3.10;;;16.30;99.90;;;;;;4965105;28;20233;-86
2022/08/29 06:54:04;;;;;;;11.55;3.20;;;16.40;99.90;;;;;;4965790;28;20196;-86
2022/08/29 06:56:31;;;;;;;9.57;2.78;;;16.50;99.90;;;;;;4963018;28;20593;-91
2022/08/29 06:58:57;;;;;;;9.43;3.63;;;16.50;99.90;;;;;;4955070;28;20196;-86
2022/08/29 07:01:24;;;;;;;9.05;2.95;;;16.50;99.90;;;;;;4971076;28;20208;-85
2022/08/29 07:03:53;;;;;;;11.02;3.35;;;16.60;99.90;;;;;;4965156;28;20216;-86
2022/08/29 07:06:19;;;;;;;10.55;3.50;;;16.60;99.90;;;;;;4968977;28;20193;-85
2022/08/29 07:08:45;;;;;;;10.65;3.40;;;16.60;99.90;;;;;;4962221;28;20207;-88
2022/08/29 07:11:11;;;;;;;8.20;2.80;;;16.60;99.90;;;;;;4970494;28;20209;-89
2022/08/29 07:13:38;;;;;;;11.27;3.15;;;16.60;99.90;;;;;;4970031;28;20189;-87
2022/08/29 07:16:08;;;;;;;8.98;3.58;;;16.60;99.90;;;;;;4966245;28;20735;-89
2022/08/29 07:18:35;;;;;;;8.45;3.00;;;16.50;99.90;;;;;;4970678;28;20332;-85
2022/08/29 07:21:08;;;;;;;7.78;2.72;;;16.60;99.90;;;;;;4974554;28;20223;-86
2022/08/29 07:23:34;;;;;;;9.60;3.40;;;16.60;99.90;;;;;;4975357;28;20176;-87
2022/08/29 07:26:15;;;;;;;10.55;4.07;;;16.60;99.90;;;;;;4974698;28;20663;-87
2022/08/29 07:28:41;;;;;;;11.77;3.75;;;16.60;99.90;;;;;;4974151;28;20192;-87
2022/08/29 07:31:09;;;;;;;9.93;3.60;;;16.70;99.90;;;;;;4974267;28;20204;-86
2022/08/29 07:33:35;;;;;;;14.13;4.35;;;16.70;99.90;;;;;;4973662;28;20199;-86
2022/08/29 07:36:01;;;;;;;16.60;4.80;;;16.80;99.90;;;;;;4976202;28;20191;-88
2022/08/29 07:38:29;;;;;;;12.57;4.07;;;16.80;99.90;;;;;;4977159;28;20556;-89
2022/08/29 07:41:00;;;;;;;10.18;4.65;;;16.90;99.90;;;;;;4976860;28;20291;-88
2022/08/29 07:43:26;;;;;;;11.18;3.80;;;17.00;99.90;;;;;;4977129;28;20180;-87
2022/08/29 07:45:54;;;;;;;14.93;4.75;;;17.10;99.90;;;;;;4977243;28;20188;-89
2022/08/29 07:48:21;;;;;;;14.85;5.10;;;17.20;99.90;;;;;;4976948;28;20203;-88
2022/08/29 07:50:48;;;;;;;12.93;4.47;;;17.30;99.90;;;;;;4976775;28;20199;-87
2022/08/29 07:53:15;;;;;;;11.98;4.35;;;17.50;99.90;;;;;;4977282;28;20254;-87
2022/08/29 07:55:41;;;;;;;14.30;4.75;;;17.60;99.90;;;;;;4964461;28;20188;-86
2022/08/29 07:58:07;;;;;;;12.02;4.35;;;17.80;99.90;;;;;;4957728;28;20692;-87
2022/08/29 08:00:33;;;;;;;13.55;4.45;;;17.90;99.90;;;;;;4957646;28;20287;-89
2022/08/29 08:02:59;;;;;;;12.05;4.20;;;18.00;99.90;;;;;;4970376;28;20310;-86
2022/08/29 08:05:25;;;;;;;12.18;5.32;;;18.00;99.90;;;;;;4976764;28;20590;-85
2022/08/29 08:07:51;;;;;;;11.57;4.50;;;18.00;99.90;;;;;;4977114;28;20206;-86
2022/08/29 08:10:19;;;;;;;9.70;4.35;;;18.00;99.90;;;;;;4976833;28;20200;-86
2022/08/29 08:12:46;;;;;;;9.80;4.22;;;18.00;99.90;;;;;;4976831;28;20176;-89
2022/08/29 08:15:12;;;;;;;14.68;5.15;;;18.10;99.90;;;;;;4963842;28;20181;-85
2022/08/29 08:17:38;;;;;;;10.35;4.90;;;18.10;99.90;;;;;;4938250;29;20181;-88
2022/08/29 08:20:06;;;;;;;9.88;4.85;;;18.10;99.90;;;;;;4937536;29;20601;-86
2022/08/29 08:22:33;;;;;;;12.20;5.55;;;18.10;99.90;;;;;;4937955;29;20204;-86
2022/08/29 08:24:59;;;;;;;13.90;5.43;;;18.20;99.90;;;;;;4938164;29;20638;-87
2022/08/29 08:27:25;;;;;;;13.23;6.13;;;18.30;99.90;;;;;;4953580;28;20215;-86
2022/08/29 08:29:57;;;;;;;12.23;5.68;;;18.30;99.90;;;;;;4952798;28;20706;-86
2022/08/29 08:32:23;;;;;;;12.82;6.00;;;18.30;99.90;;;;;;4970630;28;20183;-88
2022/08/29 08:34:49;;;;;;;14.75;6.35;;;18.30;99.90;;;;;;4972618;28;20243;-86
2022/08/29 08:37:15;;;;;;;9.73;5.60;;;18.40;99.90;;;;;;4973176;28;20219;-87
2022/08/29 08:39:42;;;;;;;15.95;6.35;;;18.40;99.90;;;;;;4973247;28;20327;-90
2022/08/29 08:42:28;;;;;;;12.15;5.72;;;18.40;99.90;;;;;;4974473;28;20161;-86
2022/08/29 08:45:05;;;;;;;12.48;5.07;;;18.50;99.90;;;;;;4972942;28;20169;-87
2022/08/29 08:47:51;;;;;;;19.05;5.45;;;18.50;99.90;;;;;;4972673;28;20315;-87
2022/08/29 08:50:17;;;;;;;12.90;6.03;;;18.50;99.90;;;;;;4972168;28;20215;-87
2022/08/29 08:52:51;;;;;;;13.50;5.90;;;18.60;99.90;;;;;;4972408;28;20544;-85
2022/08/29 08:55:27;;;;;;;11.98;5.63;;;18.80;99.90;;;;;;4961435;28;20596;-86
2022/08/29 08:58:16;;;;;;;15.02;6.43;;;19.00;99.90;;;;;;4952927;29;20196;-87
2022/08/29 09:00:55;;;;;;;11.45;6.18;;;19.20;99.90;;;;;;4951856;28;20248;-87
2022/08/29 09:03:24;;;;;;;10.65;5.30;;;19.30;99.90;;;;;;4972032;28;20204;-88
2022/08/29 09:05:57;;;;;;;10.27;4.47;;;19.40;99.90;;;;;;4972432;28;20172;-87
2022/08/29 09:08:36;;;;;;;15.45;5.97;;;19.40;99.90;;;;;;4960130;28;20217;-88
2022/08/29 09:11:35;;;;;;;13.73;6.10;;;19.30;99.90;;;;;;4953020;28;20682;-89
2022/08/29 09:14:19;;;;;;;14.00;6.00;;;19.30;99.90;;;;;;4953115;29;20389;-87
2022/08/29 09:16:50;;;;;;;12.70;5.65;;;19.30;99.90;;;;;;4954017;28;20165;-86
2022/08/29 09:19:16;;;;;;;15.40;5.85;;;19.30;99.90;;;;;;4953449;29;20272;-90
2022/08/29 09:21:50;;;;;;;13.70;6.50;;;19.40;99.90;;;;;;4953287;28;20636;-87
2022/08/29 09:24:38;;;;;;;11.20;5.13;;;19.50;99.90;;;;;;4952907;28;20193;-88
2022/08/29 09:27:05;;;;;;;14.88;5.75;;;19.70;99.90;;;;;;4954035;29;20517;-87
2022/08/29 09:29:31;;;;;;;11.93;4.80;;;19.90;99.90;;;;;;4934990;28;20607;-87
2022/08/29 09:32:13;;;;;;;12.90;5.18;;;20.00;99.90;;;;;;4940420;29;20260;-86
2022/08/29 09:34:46;;;;;;;12.50;5.22;;;20.10;99.90;;;;;;4934288;29;20250;-91
2022/08/29 09:37:26;;;;;;;11.00;4.70;;;20.20;99.90;;;;;;4934511;29;20196;-90
2022/08/29 09:40:10;;;;;;;11.18;5.05;;;20.20;99.90;;;;;;4932880;29;20212;-89
2022/08/29 09:43:00;;;;;;;10.30;4.93;;;20.20;99.90;;;;;;4933818;29;20178;-87
2022/08/29 09:45:27;;;;;;;11.55;5.05;;;20.30;99.90;;;;;;4932355;29;20268;-87
2022/08/29 09:48:16;;;;;;;12.95;5.07;;;20.20;99.90;;;;;;4933895;29;20733;-86
2022/08/29 09:50:44;;;;;;;11.23;4.95;;;20.20;99.90;;;;;;4932360;29;20642;-89
2022/08/29 09:53:10;;;;;;;10.48;4.82;;;20.20;99.90;;;;;;4932527;29;20189;-86
2022/08/29 09:55:43;;;;;;;10.80;4.68;;;20.20;99.90;;;;;;4932871;29;20676;-87
2022/08/29 09:58:33;;;;;;;10.48;5.10;;;20.40;99.90;;;;;;4931913;29;20194;-87
2022/08/29 10:01:19;;;;;;;13.07;4.70;;;20.50;99.90;;;;;;4932478;29;20572;-92
2022/08/29 10:04:06;;;;;;;11.52;4.65;;;20.60;99.90;;;;;;4932801;29;20174;-87
2022/08/29 10:06:38;;;;;;;12.95;4.10;;;20.70;99.90;;;;;;4932033;29;20193;-85
2022/08/29 10:09:11;;;;;;;12.77;4.70;;;20.70;99.90;;;;;;4932203;29;20201;-86
2022/08/29 10:11:48;;;;;;;10.98;4.53;;;20.70;99.90;;;;;;4931999;29;20194;-87
2022/08/29 10:14:34;;;;;;;8.70;4.43;;;20.60;99.90;;;;;;4931665;29;20386;-88
2022/08/29 10:20:04;;;;;;;13.10;5.00;;;20.60;99.90;;;;;;4933690;29;20228;-89
2022/08/29 10:23:01;;;;;;;11.98;4.35;;;20.80;99.90;;;;;;4932559;29;20721;-85
2022/08/29 10:25:32;;;;;;;9.15;3.85;;;20.80;99.90;;;;;;4931883;29;20208;-87
2022/08/29 10:28:28;;;;;;;6.75;3.42;;;20.90;99.90;;;;;;4941492;29;20197;-87
2022/08/29 10:31:10;;;;;;;8.18;3.47;;;20.90;99.90;;;;;;4932050;29;20213;-89
2022/08/29 10:34:03;;;;;;;7.85;3.97;;;21.10;99.90;;;;;;4932153;28;20705;-88
2022/08/29 10:36:59;;;;;;;10.20;3.78;;;21.20;99.90;;;;;;4953757;28;20675;-90
2022/08/29 10:39:46;;;;;;;9.23;3.65;;;21.30;99.90;;;;;;4966352;28;20276;-89
2022/08/29 10:42:15;;;;;;;6.85;3.10;;;21.50;99.90;;;;;;4971713;28;20204;-88
2022/08/29 10:44:56;;;;;;;6.50;3.53;;;21.60;99.90;;;;;;4953901;28;20169;-86
2022/08/29 10:47:32;;;;;;;9.32;4.13;;;21.60;99.90;;;;;;4954287;28;20656;-86
2022/08/29 10:50:05;;;;;;;13.85;3.83;;;21.50;99.90;;;;;;4948816;28;20205;-87
2022/08/29 10:52:44;;;;;;;9.30;3.13;;;21.50;99.90;;;;;;4967990;28;20240;-88
2022/08/29 10:55:27;;;;;;;11.32;3.38;;;21.50;99.90;;;;;;4971720;28;20172;-87
2022/08/29 10:58:16;;;;;;;10.52;3.97;;;21.60;99.90;;;;;;4968896;28;20180;-89
2022/08/29 11:00:56;;;;;;;8.88;3.45;;;21.70;99.90;;;;;;4938702;28;20209;-86
2022/08/29 11:03:41;;;;;;;6.47;3.45;;;21.80;99.90;;;;;;4961940;28;20197;-87
2022/08/29 11:06:32;;;;;;;7.28;3.13;;;21.90;99.90;;;;;;4944655;29;20182;-88
2022/08/29 11:09:14;;;;;;;9.20;3.63;;;21.80;99.90;;;;;;4954191;28;20239;-87
2022/08/29 11:11:48;;;;;;;7.05;3.33;;;21.90;99.90;;;;;;4936737;29;20261;-86
2022/08/29 11:14:28;;;;;;;10.05;3.63;;;22.10;99.40;;;;;;4938716;29;20173;-86
2022/08/29 11:16:55;;;;;;;6.35;3.08;;;22.10;99.20;;;;;;4959724;28;20279;-87
2022/08/29 11:19:33;;;;;;;8.85;3.67;;;22.10;98.90;;;;;;4951020;29;20633;-87
2022/08/29 11:22:20;;;;;;;10.05;3.22;;;22.10;99.50;;;;;;4951085;28;20294;-88
2022/08/29 11:25:11;;;;;;;7.80;3.58;;;22.10;99.40;;;;;;4958149;28;20265;-87
2022/08/29 11:27:50;;;;;;;5.80;3.45;;;22.10;98.60;;;;;;4957888;28;20208;-88
2022/08/29 11:30:37;;;;;;;7.18;3.13;;;21.90;98.60;;;;;;4955314;29;20814;-87
2022/08/29 11:33:27;;;;;;;5.82;3.22;;;21.70;98.60;;;;;;4965029;28;20184;-86
2022/08/29 11:36:19;;;;;;;7.82;3.28;;;21.70;98.90;;;;;;4976309;28;20227;-86
2022/08/29 11:39:12;;;;;;;8.65;3.63;;;21.70;99.30;;;;;;4957947;28;20671;-87
2022/08/29 11:41:44;;;;;;;9.80;3.53;;;21.80;99.20;;;;;;4963697;28;20181;-87
2022/08/29 11:44:18;;;;;;;8.38;3.78;;;21.70;98.90;;;;;;4938500;29;20536;-89
2022/08/29 11:46:48;;;;;;;9.32;3.90;;;21.60;99.70;;;;;;4938445;29;20212;-86
2022/08/29 11:49:24;;;;;;;5.78;3.10;;;21.60;99.80;;;;;;4938841;29;20201;-87
2022/08/29 11:51:57;;;;;;;6.45;3.03;;;21.90;98.20;;;;;;4959850;28;20735;-87
2022/08/29 11:54:22;;;;;;;8.35;3.17;;;22.20;98.00;;;;;;4960725;28;20344;-88
2022/08/29 11:56:52;;;;;;;7.60;2.83;;;22.50;97.70;;;;;;4974415;28;20686;-86
2022/08/29 11:59:49;;;;;;;5.05;2.72;;;22.90;98.10;;;;;;4957128;28;20570;-87
2022/08/29 12:02:28;;;;;;;5.32;2.78;;;23.00;95.70;;;;;;4957010;28;20188;-88
2022/08/29 12:05:15;;;;;;;5.32;2.60;;;23.30;95.70;;;;;;4956914;28;20259;-86
2022/08/29 12:08:11;;;;;;;7.32;2.83;;;23.30;95.20;;;;;;4974674;28;20192;-89
2022/08/29 12:10:56;;;;;;;6.40;2.85;;;23.10;95.70;;;;;;4956914;28;20213;-88
2022/08/29 12:13:47;;;;;;;7.65;2.83;;;22.90;95.60;;;;;;4957141;28;20176;-87
2022/08/29 12:16:16;;;;;;;10.13;3.03;;;22.90;95.90;;;;;;4940647;29;20196;-88
2022/08/29 12:18:47;;;;;;;5.53;2.78;;;23.10;96.10;;;;;;4950414;28;20189;-88
2022/08/29 12:21:32;;;;;;;4.82;2.63;;;23.40;95.90;;;;;;4956891;28;20196;-88
2022/08/29 12:23:58;;;;;;;5.93;3.08;;;23.60;95.00;;;;;;4960850;28;20202;-87
2022/08/29 12:26:42;;;;;;;5.10;2.78;;;23.80;94.70;;;;;;4956756;28;20716;-86
2022/08/29 12:29:17;;;;;;;3.65;2.20;;;23.90;95.00;;;;;;4956042;28;20664;-87
2022/08/29 12:31:58;;;;;;;6.55;2.67;;;23.80;94.10;;;;;;4956170;28;20314;-88
2022/08/29 12:34:53;;;;;;;7.88;2.58;;;23.80;94.60;;;;;;4942756;29;20231;-88
2022/08/29 12:37:47;;;;;;;4.60;2.55;;;23.80;93.60;;;;;;4928566;29;20197;-87
2022/08/29 12:40:29;;;;;;;4.80;2.38;;;23.90;93.20;;;;;;4940484;28;20220;-87
2022/08/29 12:43:42;;;;;;;5.85;2.28;;;24.00;93.50;;;;;;4956687;28;20169;-90
2022/08/29 12:46:21;;;;;;;4.75;2.08;;;24.10;93.00;;;;;;4922028;28;20195;-87
2022/08/29 12:48:53;;;;;;;3.17;2.08;;;24.20;93.80;;;;;;4955223;28;20624;-88
2022/08/29 12:51:32;;;;;;;3.53;2.20;;;24.40;93.30;;;;;;4974536;28;20208;-87
2022/08/29 12:53:57;;;;;;;4.85;1.98;;;24.50;91.90;;;;;;4955820;28;20200;-88
2022/08/29 12:56:24;;;;;;;4.32;2.10;;;24.80;92.60;;;;;;4937276;28;20204;-87
2022/08/29 12:58:50;;;;;;;5.85;2.45;;;24.90;92.50;;;;;;4947834;29;20281;-89
2022/08/29 13:01:26;;;;;;;6.22;2.30;;;25.10;92.40;;;;;;4948733;28;20559;-89
2022/08/29 13:04:13;;;;;;;4.75;2.72;;;25.20;91.90;;;;;;4969706;28;20203;-88
2022/08/29 13:06:55;;;;;;;4.82;2.45;;;25.40;92.00;;;;;;4965754;28;20222;-90
2022/08/29 13:10:06;;;;;;;3.53;2.35;;;25.30;92.00;;;;;;4960747;28;20208;-88